Flight Track Log - Related Links

Times and Time Zones

All times are in EDT time to prevent confusion due to time zone crossing. See the SRY651 flight status page for this flight to view local times or setup timezone preferences in your user account.

Time Position Orientation Groundspeed Altitude Reporting Facility
EDT Latitude Longitude Course Direction KTS MPH feet Rate Location/Type
Fri 09:18:48 AM 42.4667 -71.3167 216° Southwest 161 185 900  Level Boston TRACON
Fri 09:19:42 AM 42.4333 -71.3500 214° Southwest 175 201 2,000 1,445 Climbing Boston TRACON
Fri 09:21:05 AM 42.3811 -71.3972 211° Southwest 201 231 4,200 1,510 Climbing Boston Center
Fri 09:22:05 AM 42.3356 -71.4347 210° Southwest 201 231 5,600 1,600 Climbing Boston Center
Fri 09:23:05 AM 42.2817 -71.4775 226° Southwest 201 231 7,400 1,650 Climbing Boston Center
Fri 09:24:05 AM 42.2486 -71.5231 243° Southwest 201 231 8,900 1,700 Climbing Boston Center
Fri 09:25:05 AM 42.2222 -71.5933 229° Southwest 196 226 10,800 1,550 Climbing Boston Center
Fri 09:26:05 AM 42.1872 -71.6472 208° Southwest 202 232 12,000 1,100 Climbing Boston Center
Fri 09:27:05 AM 42.1394 -71.6814 212° Southwest 207 238 13,000 1,100 Climbing Boston Center
Fri 09:28:05 AM 42.0833 -71.7294 214° Southwest 217 250 14,200 1,200 Climbing Boston Center
Fri 09:29:05 AM 42.0400 -71.7692 212° Southwest 217 250 15,400 1,250 Climbing Boston Center
Fri 09:30:05 AM 41.9861 -71.8144 212° Southwest 217 250 16,700 1,150 Climbing Boston Center
Fri 09:31:05 AM 41.9425 -71.8511 212° Southwest 217 250 17,700 850 Climbing Boston Center
Fri 09:32:05 AM 41.8886 -71.8964 213° Southwest 217 250 18,400 700 Climbing Boston Center
Fri 09:33:05 AM 41.8408 -71.9386 214° Southwest 222 255 19,100 800 Climbing Boston Center
Fri 09:34:05 AM 41.7908 -71.9836 212° Southwest 222 255 20,000 800 Climbing Boston Center
Fri 09:35:05 AM 41.7369 -72.0283 213° Southwest 222 255 20,700 700 Climbing Boston Center
Fri 09:36:05 AM 41.6828 -72.0761 211° Southwest 233 268 21,400 650 Climbing Boston Center
Fri 09:37:05 AM 41.6267 -72.1208 214° Southwest 233 268 22,000 300 Climbing Boston Center
Fri 09:38:05 AM 41.5706 -72.1708 213° Southwest 233 268 22,000  Level Boston Center
Fri 09:39:05 AM 41.5083 -72.2239 212° Southwest 244 281 22,000  Level Boston Center
Fri 09:40:05 AM 41.4417 -72.2794 212° Southwest 261 300 22,000  Level Boston Center
Fri 09:41:05 AM 41.3792 -72.3322 212° Southwest 261 300 22,000  Level Boston Center
Fri 09:42:05 AM 41.3189 -72.3819 211° Southwest 261 300 22,000  Level Boston Center
Fri 09:43:05 AM 41.2603 -72.4289 214° Southwest 261 300 22,000  Level Boston Center
Fri 09:44:05 AM 41.2019 -72.4814 211° Southwest 261 300 22,000  Level Boston Center
Fri 09:45:05 AM 41.1394 -72.5311 212° Southwest 261 300 22,000  Level Boston Center
Fri 09:46:05 AM 41.0792 -72.5806 213° Southwest 261 300 22,000  Level Boston Center
Fri 09:47:05 AM 41.0186 -72.6328 211° Southwest 261 300 22,000 -500 Level Boston Center
Fri 09:48:05 AM 40.9539 -72.6847 212° Southwest 266 306 21,000 -850 Descending Boston Center
Fri 09:49:05 AM 40.8869 -72.7394 212° Southwest 272 313 20,300 -700 Descending Boston Center
Fri 09:50:05 AM 40.8222 -72.7939 212° Southwest 277 319 19,600 -979 Descending Boston Center
Fri 09:52:15 AM 40.6756 -72.9164 213° Southwest 274 315 17,200 -1,099 Descending New York Center
Fri 09:53:16 AM 40.6164 -72.9667 211° Southwest 286 329 16,100 -645 Descending New York Center
Fri 09:54:16 AM 40.5444 -73.0242 212° Southwest 281 323 15,900 -51 Descending New York Center
Fri 09:55:14 AM 40.4872 -73.0714 212° Southwest 281 323 16,000 50 Climbing New York Center
Fri 09:56:15 AM 40.4194 -73.1264 211° Southwest 281 323 16,000  Level New York Center
Fri 09:57:15 AM 40.3625 -73.1708 214° Southwest 274 315 16,000  Level New York Center
Fri 09:58:15 AM 40.2967 -73.2283 212° Southwest 269 310 16,000  Level New York Center
Fri 09:59:16 AM 40.2436 -73.2725 210° Southwest 259 298 16,000 -298 Level New York Center
Fri 10:00:16 AM 40.1758 -73.3244 213° Southwest 259 298 15,400 -6,102 Descending New York Center
Fri 10:01:14 AM 40.1247 -73.3686 226° Southwest 253 291 4,000 -5,797 Descending New York Center
Fri 10:02:14 AM 40.0753 -73.4347 267° West 253 291 4,000  Level New York Center
Fri 10:03:16 AM 40.0714 -73.5186 257° West 242 278 4,000 1,967 Level New York Center
Fri 10:04:16 AM 40.0544 -73.6156 256° West 253 291 8,000 2,034 Climbing New York Center
Fri 10:05:14 AM 40.0400 -73.6908 257° West 252 290 8,000  Level New York Center
Fri 10:06:14 AM 40.0231 -73.7850 260° West 252 290 8,000  Level New York Center
Fri 10:07:14 AM 40.0103 -73.8794 291° West 257 296 8,000  Level New York Center
Fri 10:08:15 AM 40.0350 -73.9644 293° West 250 288 8,000  Level New York Center
Fri 10:09:15 AM 40.0639 -74.0528 293° West 260 299 8,000  Level New York Center
Fri 10:10:16 AM 40.0886 -74.1297 291° West 260 299 8,000  Level New York Center
Fri 10:11:16 AM 40.1172 -74.2261 292° West 260 299 8,000  Level New York Center
Fri 10:12:14 AM 40.1439 -74.3144 292° West 255 293 8,000  Level New York Center
Fri 10:13:14 AM 40.1703 -74.4000 295° West 255 293 8,000 -2,264 Level New York Center
Fri 10:14:00 AM 40.1925 -74.4622 287° West 257 296 4,000 -2,791 Descending FAA TRACON SMA TRACON (SMA)
Fri 10:14:40 AM 40.2056 -74.5181 279° West 244 281 4,000  Level FAA TRACON SMA TRACON (SMA)
Fri 10:15:20 AM 40.2131 -74.5769 279° West 237 273 4,000  Level FAA TRACON SMA TRACON (SMA)
Fri 10:16:00 AM 40.2200 -74.6328 297° West 224 258 4,000 -375 Level FAA TRACON SMA TRACON (SMA)
Fri 10:16:40 AM 40.2364 -74.6744 304° West 203 234 3,500 -975 Descending FAA TRACON SMA TRACON (SMA)
Fri 10:17:20 AM 40.2589 -74.7183 326° Northwest 199 229 2,700 -1,350 Descending FAA TRACON SMA TRACON (SMA)
Fri 10:18:00 AM 40.2875 -74.7433 308° West 191 220 1,700 -1,125 Descending FAA TRACON SMA TRACON (SMA)
Fri 10:18:40 AM 40.3028 -74.7692 236° Southwest 145 167 1,200 -900 Descending FAA TRACON SMA TRACON (SMA)
Fri 10:19:20 AM 40.2903 -74.7933 228° Southwest 127 146 500 -600 Descending FAA TRACON SMA TRACON (SMA)
Fri 10:20:00 AM 40.2847 -74.8014 360° North 115 132 400 -72 Descending FAA TRACON SMA TRACON (SMA)
Fri 10:20:43 AM 40.2847 -74.8014 360° North 115 132 400  Level FAA TRACON SMA TRACON (SMA)

Login

Don't have an account? Register now (free) for customized features, flight alerts, and more!